sensor_id;sensor_type;location;lat;lon;timestamp;pressure;altitude;pressure_sealevel;temperature;humidity
12803;BME280;6465;42.700;23.278;2023-12-20T00:01:18;95370.91;;;0.46;95.72
12803;BME280;6465;42.700;23.278;2023-12-20T00:03:45;95366.66;;;0.37;95.21
12803;BME280;6465;42.700;23.278;2023-12-20T00:06:13;95376.97;;;0.37;95.09
12803;BME280;6465;42.700;23.278;2023-12-20T00:08:40;95372.63;;;0.40;95.23
12803;BME280;6465;42.700;23.278;2023-12-20T00:11:07;95364.03;;;0.42;95.00
12803;BME280;6465;42.700;23.278;2023-12-20T00:13:34;95358.97;;;0.32;94.64
12803;BME280;6465;42.700;23.278;2023-12-20T00:16:03;95352.06;;;0.34;94.63
12803;BME280;6465;42.700;23.278;2023-12-20T00:18:30;95360.69;;;0.33;94.50
12803;BME280;6465;42.700;23.278;2023-12-20T00:20:57;95351.25;;;0.28;94.22
12803;BME280;6465;42.700;23.278;2023-12-20T00:23:24;95344.44;;;0.24;94.94
12803;BME280;6465;42.700;23.278;2023-12-20T00:25:51;95345.25;;;0.27;94.75
12803;BME280;6465;42.700;23.278;2023-12-20T00:28:18;95341.00;;;0.25;94.74
12803;BME280;6465;42.700;23.278;2023-12-20T00:30:45;95332.41;;;0.21;95.44
12803;BME280;6465;42.700;23.278;2023-12-20T00:33:13;95331.56;;;0.22;95.32
12803;BME280;6465;42.700;23.278;2023-12-20T00:35:40;95325.59;;;0.17;94.91
12803;BME280;6465;42.700;23.278;2023-12-20T00:38:07;95332.44;;;0.18;94.92
12803;BME280;6465;42.700;23.278;2023-12-20T00:40:34;95327.31;;;0.17;95.05
12803;BME280;6465;42.700;23.278;2023-12-20T00:43:01;95329.06;;;0.10;95.18
12803;BME280;6465;42.700;23.278;2023-12-20T00:45:28;95327.34;;;0.12;94.73
12803;BME280;6465;42.700;23.278;2023-12-20T00:47:55;95317.00;;;0.17;95.06
12803;BME280;6465;42.700;23.278;2023-12-20T00:50:24;95320.47;;;0.13;94.91
12803;BME280;6465;42.700;23.278;2023-12-20T00:52:51;95313.63;;;0.10;95.10
12803;BME280;6465;42.700;23.278;2023-12-20T00:55:18;95316.19;;;0.12;96.72
12803;BME280;6465;42.700;23.278;2023-12-20T00:57:45;95317.00;;;0.14;97.03
12803;BME280;6465;42.700;23.278;2023-12-20T01:00:13;95309.28;;;0.18;96.96
12803;BME280;6465;42.700;23.278;2023-12-20T01:02:40;95309.28;;;0.18;96.85
12803;BME280;6465;42.700;23.278;2023-12-20T01:05:07;95302.38;;;0.22;96.26
12803;BME280;6465;42.700;23.278;2023-12-20T01:07:36;95301.56;;;0.14;95.32
12803;BME280;6465;42.700;23.278;2023-12-20T01:10:03;95292.97;;;0.16;95.17
12803;BME280;6465;42.700;23.278;2023-12-20T01:12:30;95290.41;;;0.16;94.62
12803;BME280;6465;42.700;23.278;2023-12-20T01:14:57;95287.88;;;0.13;94.14
12803;BME280;6465;42.700;23.278;2023-12-20T01:17:24;95283.59;;;0.09;93.60
12803;BME280;6465;42.700;23.278;2023-12-20T01:19:51;95287.91;;;0.04;93.29
12803;BME280;6465;42.700;23.278;2023-12-20T01:22:18;95300.75;;;0.09;93.91
12803;BME280;6465;42.700;23.278;2023-12-20T01:24:47;95285.34;;;0.04;93.42
12803;BME280;6465;42.700;23.278;2023-12-20T01:27:14;95278.50;;;0.03;93.42
12803;BME280;6465;42.700;23.278;2023-12-20T01:29:41;95275.97;;;-0.05;93.12
12803;BME280;6465;42.700;23.278;2023-12-20T01:32:08;95268.22;;;-0.03;92.86
12803;BME280;6465;42.700;23.278;2023-12-20T01:34:34;95265.66;;;0.00;92.91
12803;BME280;6465;42.700;23.278;2023-12-20T01:37:01;95265.72;;;-0.09;92.93
12803;BME280;6465;42.700;23.278;2023-12-20T01:39:29;95258.00;;;-0.11;94.23
12803;BME280;6465;42.700;23.278;2023-12-20T01:41:57;95258.00;;;-0.11;93.69
12803;BME280;6465;42.700;23.278;2023-12-20T01:44:24;95251.94;;;-0.07;93.71
12803;BME280;6465;42.700;23.278;2023-12-20T01:46:52;95243.41;;;-0.07;93.80
12803;BME280;6465;42.700;23.278;2023-12-20T01:49:19;95247.66;;;-0.06;93.86
12803;BME280;6465;42.700;23.278;2023-12-20T01:51:47;95240.78;;;-0.04;94.15
12803;BME280;6465;42.700;23.278;2023-12-20T01:54:15;95244.25;;;-0.10;93.80
12803;BME280;6465;42.700;23.278;2023-12-20T01:56:42;95233.09;;;-0.07;94.62
12803;BME280;6465;42.700;23.278;2023-12-20T01:59:11;95228.00;;;-0.15;95.42
12803;BME280;6465;42.700;23.278;2023-12-20T02:01:39;95232.22;;;-0.06;94.95
12803;BME280;6465;42.700;23.278;2023-12-20T02:04:06;95233.97;;;-0.11;93.63
12803;BME280;6465;42.700;23.278;2023-12-20T02:06:33;95230.53;;;-0.09;94.40
12803;BME280;6465;42.700;23.278;2023-12-20T02:09:01;95218.53;;;-0.11;96.84
12803;BME280;6465;42.700;23.278;2023-12-20T02:11:27;95218.41;;;0.06;98.13
12803;BME280;6465;42.700;23.278;2023-12-20T02:13:55;95215.78;;;0.10;98.53
12803;BME280;6465;42.700;23.278;2023-12-20T02:16:24;95213.22;;;0.13;97.62
12803;BME280;6465;42.700;23.278;2023-12-20T02:18:50;95214.97;;;0.07;95.28
12803;BME280;6465;42.700;23.278;2023-12-20T02:21:17;95207.31;;;-0.03;93.99
12803;BME280;6465;42.700;23.278;2023-12-20T02:23:46;95219.38;;;-0.08;93.63
12803;BME280;6465;42.700;23.278;2023-12-20T02:26:13;95210.81;;;-0.10;93.85
12803;BME280;6465;42.700;23.278;2023-12-20T02:28:39;95203.94;;;-0.08;93.93
12803;BME280;6465;42.700;23.278;2023-12-20T02:31:06;95198.81;;;-0.12;93.35
12803;BME280;6465;42.700;23.278;2023-12-20T02:33:33;95202.31;;;-0.21;92.49
12803;BME280;6465;42.700;23.278;2023-12-20T02:36:00;95196.31;;;-0.21;92.93
12803;BME280;6465;42.700;23.278;2023-12-20T02:38:27;95192.00;;;-0.18;92.76
12803;BME280;6465;42.700;23.278;2023-12-20T02:40:56;95187.75;;;-0.20;92.67
12803;BME280;6465;42.700;23.278;2023-12-20T02:43:22;95192.03;;;-0.24;93.10
12803;BME280;6465;42.700;23.278;2023-12-20T02:45:49;95181.69;;;-0.15;93.61
12803;BME280;6465;42.700;23.278;2023-12-20T02:48:17;95187.69;;;-0.14;96.57
12803;BME280;6465;42.700;23.278;2023-12-20T02:50:45;95183.38;;;-0.12;97.99
12803;BME280;6465;42.700;23.278;2023-12-20T02:53:13;95180.84;;;-0.15;97.05
12803;BME280;6465;42.700;23.278;2023-12-20T02:55:40;95184.25;;;-0.16;99.22
12803;BME280;6465;42.700;23.278;2023-12-20T02:58:08;95182.50;;;-0.13;97.76
12803;BME280;6465;42.700;23.278;2023-12-20T03:00:35;95187.69;;;-0.14;96.49
12803;BME280;6465;42.700;23.278;2023-12-20T03:03:03;95182.59;;;-0.20;95.53
12803;BME280;6465;42.700;23.278;2023-12-20T03:05:30;95191.97;;;-0.15;94.91
12803;BME280;6465;42.700;23.278;2023-12-20T03:07:57;95180.88;;;-0.24;98.70
12803;BME280;6465;42.700;23.278;2023-12-20T03:10:24;95182.59;;;-0.23;97.81
12803;BME280;6465;42.700;23.278;2023-12-20T03:12:51;95180.03;;;-0.22;97.73
12803;BME280;6465;42.700;23.278;2023-12-20T03:15:19;95174.88;;;-0.22;96.80
12803;BME280;6465;42.700;23.278;2023-12-20T03:17:46;95174.03;;;-0.22;96.03
12803;BME280;6465;42.700;23.278;2023-12-20T03:20:13;95179.16;;;-0.22;95.05
12803;BME280;6465;42.700;23.278;2023-12-20T03:22:40;95173.16;;;-0.23;95.21
12803;BME280;6465;42.700;23.278;2023-12-20T03:25:07;95170.63;;;-0.27;94.66
12803;BME280;6465;42.700;23.278;2023-12-20T03:27:37;95170.59;;;-0.24;95.01
12803;BME280;6465;42.700;23.278;2023-12-20T03:30:05;95174.03;;;-0.22;95.64
12803;BME280;6465;42.700;23.278;2023-12-20T03:32:33;95164.66;;;-0.31;95.94
12803;BME280;6465;42.700;23.278;2023-12-20T03:35:00;95163.78;;;-0.31;95.40
12803;BME280;6465;42.700;23.278;2023-12-20T03:37:28;95160.34;;;-0.30;96.00
12803;BME280;6465;42.700;23.278;2023-12-20T03:39:55;95168.13;;;-0.38;95.57
12803;BME280;6465;42.700;23.278;2023-12-20T03:42:22;95153.50;;;-0.28;94.59
12803;BME280;6465;42.700;23.278;2023-12-20T03:44:49;95155.22;;;-0.33;96.78
12803;BME280;6465;42.700;23.278;2023-12-20T03:47:16;95158.63;;;-0.30;95.17
12803;BME280;6465;42.700;23.278;2023-12-20T03:49:44;95153.53;;;-0.34;96.43
12803;BME280;6465;42.700;23.278;2023-12-20T03:52:11;95162.06;;;-0.32;97.80
12803;BME280;6465;42.700;23.278;2023-12-20T03:54:38;95159.53;;;-0.35;97.30
12803;BME280;6465;42.700;23.278;2023-12-20T03:57:05;95158.69;;;-0.34;96.40
12803;BME280;6465;42.700;23.278;2023-12-20T03:59:34;95156.13;;;-0.34;95.39
12803;BME280;6465;42.700;23.278;2023-12-20T04:02:01;95143.31;;;-0.41;95.41
12803;BME280;6465;42.700;23.278;2023-12-20T04:04:28;95146.66;;;-0.32;94.87
12803;BME280;6465;42.700;23.278;2023-12-20T04:06:57;95144.09;;;-0.34;95.63
12803;BME280;6465;42.700;23.278;2023-12-20T04:09:24;95142.41;;;-0.35;95.43
12803;BME280;6465;42.700;23.278;2023-12-20T04:11:51;95142.41;;;-0.36;96.78
12803;BME280;6465;42.700;23.278;2023-12-20T04:14:18;95132.97;;;-0.37;98.59
12803;BME280;6465;42.700;23.278;2023-12-20T04:16:44;95128.69;;;-0.37;99.18
12803;BME280;6465;42.700;23.278;2023-12-20T04:19:12;95128.75;;;-0.46;97.40
12803;BME280;6465;42.700;23.278;2023-12-20T04:21:38;95126.16;;;-0.42;97.49
12803;BME280;6465;42.700;23.278;2023-12-20T04:24:07;95112.41;;;-0.39;98.22
12803;BME280;6465;42.700;23.278;2023-12-20T04:26:34;95116.75;;;-0.47;98.69
12803;BME280;6465;42.700;23.278;2023-12-20T04:29:01;95122.75;;;-0.47;97.94
12803;BME280;6465;42.700;23.278;2023-12-20T04:31:28;95124.44;;;-0.44;97.89
12803;BME280;6465;42.700;23.278;2023-12-20T04:33:55;95126.13;;;-0.37;97.42
12803;BME280;6465;42.700;23.278;2023-12-20T04:36:22;95114.16;;;-0.46;96.77
12803;BME280;6465;42.700;23.278;2023-12-20T04:38:50;95119.31;;;-0.46;96.60
12803;BME280;6465;42.700;23.278;2023-12-20T04:41:19;95109.88;;;-0.47;96.64
12803;BME280;6465;42.700;23.278;2023-12-20T04:43:46;95110.72;;;-0.45;96.42
12803;BME280;6465;42.700;23.278;2023-12-20T04:46:13;95117.63;;;-0.50;97.77
12803;BME280;6465;42.700;23.278;2023-12-20T04:48:40;95114.16;;;-0.43;97.91
12803;BME280;6465;42.700;23.278;2023-12-20T04:51:07;95117.59;;;-0.44;98.18
12803;BME280;6465;42.700;23.278;2023-12-20T04:53:34;95114.16;;;-0.44;98.32
12803;BME280;6465;42.700;23.278;2023-12-20T04:56:01;95112.50;;;-0.50;99.52
12803;BME280;6465;42.700;23.278;2023-12-20T04:58:29;95111.66;;;-0.53;100.00
12803;BME280;6465;42.700;23.278;2023-12-20T05:00:56;95106.50;;;-0.49;99.64
12803;BME280;6465;42.700;23.278;2023-12-20T05:03:23;95107.34;;;-0.50;100.00
12803;BME280;6465;42.700;23.278;2023-12-20T05:05:50;95108.22;;;-0.51;99.97
12803;BME280;6465;42.700;23.278;2023-12-20T05:08:17;95097.13;;;-0.56;100.00
12803;BME280;6465;42.700;23.278;2023-12-20T05:10:44;95099.66;;;-0.53;100.00
12803;BME280;6465;42.700;23.278;2023-12-20T05:13:11;95091.97;;;-0.59;99.67
12803;BME280;6465;42.700;23.278;2023-12-20T05:15:39;95064.75;;;-0.81;99.60
12803;BME280;6465;42.700;23.278;2023-12-20T05:18:06;95097.13;;;-0.59;99.79
12803;BME280;6465;42.700;23.278;2023-12-20T05:20:33;95098.06;;;-0.69;100.00
12803;BME280;6465;42.700;23.278;2023-12-20T05:23:01;95093.75;;;-0.64;100.00
12803;BME280;6465;42.700;23.278;2023-12-20T05:25:27;95088.59;;;-0.65;100.00
12803;BME280;6465;42.700;23.278;2023-12-20T05:27:54;95089.41;;;-0.60;99.70
12803;BME280;6465;42.700;23.278;2023-12-20T05:30:21;95085.16;;;-0.63;99.28
12803;BME280;6465;42.700;23.278;2023-12-20T05:32:50;95081.75;;;-0.65;98.25
12803;BME280;6465;42.700;23.278;2023-12-20T05:35:17;95081.81;;;-0.74;99.32
12803;BME280;6465;42.700;23.278;2023-12-20T05:37:44;95065.56;;;-0.77;100.00
12803;BME280;6465;42.700;23.278;2023-12-20T05:40:11;95078.38;;;-0.73;100.00
12803;BME280;6465;42.700;23.278;2023-12-20T05:42:38;95073.25;;;-0.74;100.00
12803;BME280;6465;42.700;23.278;2023-12-20T05:45:06;95076.66;;;-0.74;100.00
12803;BME280;6465;42.700;23.278;2023-12-20T05:47:33;95075.03;;;-0.81;100.00
12803;BME280;6465;42.700;23.278;2023-12-20T05:50:01;95075.81;;;-0.73;100.00
12803;BME280;6465;42.700;23.278;2023-12-20T05:52:28;95074.09;;;-0.72;100.00
12803;BME280;6465;42.700;23.278;2023-12-20T05:54:55;95062.09;;;-0.70;100.00
12803;BME280;6465;42.700;23.278;2023-12-20T05:57:23;95062.94;;;-0.73;100.00
12803;BME280;6465;42.700;23.278;2023-12-20T05:59:50;95064.66;;;-0.72;100.00
12803;BME280;6465;42.700;23.278;2023-12-20T06:02:17;95066.31;;;-0.65;100.00
12803;BME280;6465;42.700;23.278;2023-12-20T06:04:44;95058.66;;;-0.68;100.00
12803;BME280;6465;42.700;23.278;2023-12-20T06:07:13;95066.28;;;-0.60;100.00
12803;BME280;6465;42.700;23.278;2023-12-20T06:09:40;95050.84;;;-0.59;100.00
12803;BME280;6465;42.700;23.278;2023-12-20T06:12:08;95055.97;;;-0.59;100.00
12803;BME280;6465;42.700;23.278;2023-12-20T06:14:35;95069.56;;;-0.43;100.00
12803;BME280;6465;42.700;23.278;2023-12-20T06:17:02;95061.91;;;-0.51;100.00
12803;BME280;6465;42.700;23.278;2023-12-20T06:19:29;95059.28;;;-0.45;100.00
12803;BME280;6465;42.700;23.278;2023-12-20T06:21:56;95062.66;;;-0.38;100.00
12803;BME280;6465;42.700;23.278;2023-12-20T06:24:24;95067.75;;;-0.33;100.00
12803;BME280;6465;42.700;23.278;2023-12-20T06:26:53;95063.41;;;-0.24;100.00
12803;BME280;6465;42.700;23.278;2023-12-20T06:29:20;95066.03;;;-0.28;100.00
12803;BME280;6465;42.700;23.278;2023-12-20T06:31:47;95063.41;;;-0.24;100.00
12803;BME280;6465;42.700;23.278;2023-12-20T06:34:14;95065.91;;;-0.19;100.00
12803;BME280;6465;42.700;23.278;2023-12-20T06:36:41;95062.47;;;-0.18;100.00
12803;BME280;6465;42.700;23.278;2023-12-20T06:39:08;95060.72;;;-0.13;100.00
12803;BME280;6465;42.700;23.278;2023-12-20T06:41:39;95055.59;;;-0.16;100.00
12803;BME280;6465;42.700;23.278;2023-12-20T06:44:06;95058.19;;;-0.19;100.00
12803;BME280;6465;42.700;23.278;2023-12-20T06:46:33;95048.75;;;-0.14;100.00
12803;BME280;6465;42.700;23.278;2023-12-20T06:49:00;95021.50;;;-0.36;100.00
12803;BME280;6465;42.700;23.278;2023-12-20T06:51:27;95041.88;;;-0.15;100.00
12803;BME280;6465;42.700;23.278;2023-12-20T06:53:56;95045.25;;;-0.09;100.00
12803;BME280;6465;42.700;23.278;2023-12-20T06:56:23;95027.22;;;-0.09;100.00
12803;BME280;6465;42.700;23.278;2023-12-20T06:58:52;95037.38;;;0.04;99.77
12803;BME280;6465;42.700;23.278;2023-12-20T07:01:18;95040.09;;;-0.07;100.00
12803;BME280;6465;42.700;23.278;2023-12-20T07:03:45;95035.81;;;-0.10;100.00
12803;BME280;6465;42.700;23.278;2023-12-20T07:06:12;95029.72;;;-0.01;100.00
12803;BME280;6465;42.700;23.278;2023-12-20T07:08:41;95032.19;;;0.08;100.00
12803;BME280;6465;42.700;23.278;2023-12-20T07:11:08;95032.19;;;0.08;100.00
12803;BME280;6465;42.700;23.278;2023-12-20T07:13:35;95024.50;;;0.05;100.00
12803;BME280;6465;42.700;23.278;2023-12-20T07:16:04;95041.59;;;0.09;100.00
12803;BME280;6465;42.700;23.278;2023-12-20T07:18:31;95022.63;;;0.19;99.98
12803;BME280;6465;42.700;23.278;2023-12-20T07:20:58;95020.06;;;0.18;99.66
12803;BME280;6465;42.700;23.278;2023-12-20T07:23:25;95020.06;;;0.19;99.16
12803;BME280;6465;42.700;23.278;2023-12-20T07:25:52;95016.47;;;0.32;98.73
12803;BME280;6465;42.700;23.278;2023-12-20T07:28:19;95017.25;;;0.37;98.43
12803;BME280;6465;42.700;23.278;2023-12-20T07:30:46;95015.38;;;0.49;97.76
12803;BME280;6465;42.700;23.278;2023-12-20T07:33:14;95017.16;;;0.44;97.17
12803;BME280;6465;42.700;23.278;2023-12-20T07:35:41;95012.00;;;0.47;96.38
12803;BME280;6465;42.700;23.278;2023-12-20T07:38:10;95019.78;;;0.40;95.33
12803;BME280;6465;42.700;23.278;2023-12-20T07:40:38;95009.53;;;0.36;95.75
12803;BME280;6465;42.700;23.278;2023-12-20T07:43:05;95020.75;;;0.33;96.66
12803;BME280;6465;42.700;23.278;2023-12-20T07:45:32;95012.97;;;0.36;97.08
12803;BME280;6465;42.700;23.278;2023-12-20T07:47:59;95009.41;;;0.47;96.57
12803;BME280;6465;42.700;23.278;2023-12-20T07:50:27;95004.94;;;0.59;94.90
12803;BME280;6465;42.700;23.278;2023-12-20T07:52:54;95005.06;;;0.50;94.64
12803;BME280;6465;42.700;23.278;2023-12-20T07:55:21;95000.59;;;0.64;95.43
12803;BME280;6465;42.700;23.278;2023-12-20T07:57:48;94998.84;;;0.66;95.54
12803;BME280;6465;42.700;23.278;2023-12-20T08:00:16;95004.72;;;0.74;95.48
12803;BME280;6465;42.700;23.278;2023-12-20T08:02:43;95008.06;;;0.81;95.20
12803;BME280;6465;42.700;23.278;2023-12-20T08:05:10;95003.66;;;0.88;95.03
12803;BME280;6465;42.700;23.278;2023-12-20T08:07:38;94994.16;;;0.93;94.73
12803;BME280;6465;42.700;23.278;2023-12-20T08:10:06;94988.06;;;0.98;94.39
12803;BME280;6465;42.700;23.278;2023-12-20T08:12:33;94997.56;;;0.95;93.43
12803;BME280;6465;42.700;23.278;2023-12-20T08:15:01;94987.19;;;0.99;93.44
12803;BME280;6465;42.700;23.278;2023-12-20T08:17:29;94980.34;;;0.95;93.06
12803;BME280;6465;42.700;23.278;2023-12-20T08:19:56;94985.41;;;1.01;93.60
12803;BME280;6465;42.700;23.278;2023-12-20T08:22:23;94981.84;;;1.11;94.24
12803;BME280;6465;42.700;23.278;2023-12-20T08:24:52;94983.31;;;1.28;94.64
12803;BME280;6465;42.700;23.278;2023-12-20T08:27:19;94983.03;;;1.43;93.82
12803;BME280;6465;42.700;23.278;2023-12-20T08:29:46;94965.66;;;1.54;93.54
12803;BME280;6465;42.700;23.278;2023-12-20T08:32:13;94975.00;;;1.61;92.96
12803;BME280;6465;42.700;23.278;2023-12-20T08:34:40;94972.94;;;1.80;91.85
12803;BME280;6465;42.700;23.278;2023-12-20T08:37:07;94957.34;;;1.83;90.98
12803;BME280;6465;42.700;23.278;2023-12-20T08:39:34;94960.94;;;1.76;91.35
12803;BME280;6465;42.700;23.278;2023-12-20T08:42:02;94962.88;;;1.65;91.67
12803;BME280;6465;42.700;23.278;2023-12-20T08:44:29;94956.94;;;1.59;91.88
12803;BME280;6465;42.700;23.278;2023-12-20T08:46:56;94952.75;;;1.54;92.36
12803;BME280;6465;42.700;23.278;2023-12-20T08:49:23;94951.16;;;1.47;93.15
12803;BME280;6465;42.700;23.278;2023-12-20T08:51:51;94940.88;;;1.45;93.83
12803;BME280;6465;42.700;23.278;2023-12-20T08:54:18;94943.44;;;1.45;94.57
12803;BME280;6465;42.700;23.278;2023-12-20T08:56:45;94941.66;;;1.49;94.94
12803;BME280;6465;42.700;23.278;2023-12-20T08:59:14;94934.75;;;1.51;95.49
12803;BME280;6465;42.700;23.278;2023-12-20T09:01:41;94926.13;;;1.52;95.37
12803;BME280;6465;42.700;23.278;2023-12-20T09:04:08;94918.16;;;1.64;94.49
12803;BME280;6465;42.700;23.278;2023-12-20T09:06:35;94912.22;;;1.59;94.43
12803;BME280;6465;42.700;23.278;2023-12-20T09:09:02;94906.09;;;1.65;94.51
12803;BME280;6465;42.700;23.278;2023-12-20T09:11:29;94905.31;;;1.61;94.95
12803;BME280;6465;42.700;23.278;2023-12-20T09:13:56;94897.47;;;1.67;95.43
12803;BME280;6465;42.700;23.278;2023-12-20T09:16:24;94887.72;;;1.81;95.17
12803;BME280;6465;42.700;23.278;2023-12-20T09:18:51;94871.03;;;1.97;94.68
12803;BME280;6465;42.700;23.278;2023-12-20T09:21:18;94872.47;;;2.11;94.25
12803;BME280;6465;42.700;23.278;2023-12-20T09:23:45;94855.22;;;2.11;93.40
12803;BME280;6465;42.700;23.278;2023-12-20T09:26:12;94858.47;;;2.21;92.46
12803;BME280;6465;42.700;23.278;2023-12-20T09:28:39;94854.25;;;2.17;92.29
12803;BME280;6465;42.700;23.278;2023-12-20T09:31:06;94853.44;;;2.15;93.07
12803;BME280;6465;42.700;23.278;2023-12-20T09:33:35;94848.19;;;2.18;91.86
12803;BME280;6465;42.700;23.278;2023-12-20T09:36:02;94849.22;;;2.11;93.24
12803;BME280;6465;42.700;23.278;2023-12-20T09:38:29;94841.97;;;2.28;93.81
12803;BME280;6465;42.700;23.278;2023-12-20T09:40:56;94821.06;;;2.37;93.50
12803;BME280;6465;42.700;23.278;2023-12-20T09:43:24;94819.25;;;2.42;93.32
12803;BME280;6465;42.700;23.278;2023-12-20T09:45:53;94823.47;;;2.45;92.25
12803;BME280;6465;42.700;23.278;2023-12-20T09:48:21;94815.69;;;2.46;92.69
12803;BME280;6465;42.700;23.278;2023-12-20T09:50:49;94794.22;;;2.43;92.73
12803;BME280;6465;42.700;23.278;2023-12-20T09:53:17;94813.47;;;2.66;92.40
12803;BME280;6465;42.700;23.278;2023-12-20T09:55:46;94809.13;;;2.68;91.74
12803;BME280;6465;42.700;23.278;2023-12-20T09:58:13;94797.69;;;2.77;91.37
12803;BME280;6465;42.700;23.278;2023-12-20T10:00:40;94820.09;;;2.76;90.63
12803;BME280;6465;42.700;23.278;2023-12-20T10:03:08;94802.94;;;2.75;90.63
12803;BME280;6465;42.700;23.278;2023-12-20T10:05:35;94793.72;;;2.64;91.69
12803;BME280;6465;42.700;23.278;2023-12-20T10:08:04;94784.34;;;2.60;91.68
12803;BME280;6465;42.700;23.278;2023-12-20T10:10:31;94793.84;;;2.59;91.69
12803;BME280;6465;42.700;23.278;2023-12-20T10:13:03;94777.59;;;2.54;93.25
12803;BME280;6465;42.700;23.278;2023-12-20T10:15:32;94778.84;;;2.73;93.61
12803;BME280;6465;42.700;23.278;2023-12-20T10:17:59;94776.91;;;2.82;93.78
12803;BME280;6465;42.700;23.278;2023-12-20T10:20:29;94763.81;;;2.88;92.66
12803;BME280;6465;42.700;23.278;2023-12-20T10:22:56;94766.94;;;3.00;92.63
12803;BME280;6465;42.700;23.278;2023-12-20T10:25:25;94757.03;;;3.16;92.04
12803;BME280;6465;42.700;23.278;2023-12-20T10:28:11;94750.00;;;3.21;91.96
12803;BME280;6465;42.700;23.278;2023-12-20T10:30:39;94747.13;;;3.30;92.11
12803;BME280;6465;42.700;23.278;2023-12-20T10:33:06;94738.38;;;3.36;92.17
12803;BME280;6465;42.700;23.278;2023-12-20T10:35:34;94728.78;;;3.39;91.43
12803;BME280;6465;42.700;23.278;2023-12-20T10:38:03;94727.00;;;3.41;91.46
12803;BME280;6465;42.700;23.278;2023-12-20T10:40:34;94719.00;;;3.49;91.36
12803;BME280;6465;42.700;23.278;2023-12-20T10:43:02;94708.91;;;3.40;91.02
12803;BME280;6465;42.700;23.278;2023-12-20T10:45:30;94706.78;;;3.54;90.80
12803;BME280;6465;42.700;23.278;2023-12-20T10:47:58;94704.22;;;3.52;91.47
12803;BME280;6465;42.700;23.278;2023-12-20T10:50:26;94691.13;;;3.57;92.41
12803;BME280;6465;42.700;23.278;2023-12-20T10:52:55;94707.44;;;3.61;92.96
12803;BME280;6465;42.700;23.278;2023-12-20T10:55:22;94698.78;;;3.62;92.97
12803;BME280;6465;42.700;23.278;2023-12-20T10:57:51;94700.50;;;3.63;93.33
12803;BME280;6465;42.700;23.278;2023-12-20T11:00:18;94700.38;;;3.66;93.47
12803;BME280;6465;42.700;23.278;2023-12-20T11:02:45;94689.19;;;3.65;93.22
12803;BME280;6465;42.700;23.278;2023-12-20T11:05:26;94684.06;;;3.64;93.66
12803;BME280;6465;42.700;23.278;2023-12-20T11:08:01;94681.81;;;3.51;94.36
12803;BME280;6465;42.700;23.278;2023-12-20T11:10:33;94664.44;;;3.56;94.16
12803;BME280;6465;42.700;23.278;2023-12-20T11:13:08;94672.47;;;3.47;94.15
12803;BME280;6465;42.700;23.278;2023-12-20T11:15:37;94666.66;;;3.39;94.86
12803;BME280;6465;42.700;23.278;2023-12-20T11:18:05;94666.59;;;3.42;94.34
12803;BME280;6465;42.700;23.278;2023-12-20T11:20:36;94664.94;;;3.40;94.68
12803;BME280;6465;42.700;23.278;2023-12-20T11:23:04;94644.25;;;3.38;94.46
12803;BME280;6465;42.700;23.278;2023-12-20T11:25:46;94644.19;;;3.41;94.25
12803;BME280;6465;42.700;23.278;2023-12-20T11:28:14;94640.03;;;3.36;94.34
12803;BME280;6465;42.700;23.278;2023-12-20T11:30:46;94627.84;;;3.39;94.97
12803;BME280;6465;42.700;23.278;2023-12-20T11:33:14;94629.53;;;3.40;94.54
12803;BME280;6465;42.700;23.278;2023-12-20T11:35:42;94617.53;;;3.38;94.26
12803;BME280;6465;42.700;23.278;2023-12-20T11:38:09;94610.91;;;3.29;94.43
12803;BME280;6465;42.700;23.278;2023-12-20T11:40:36;94610.72;;;3.35;94.07
12803;BME280;6465;42.700;23.278;2023-12-20T11:43:04;94605.78;;;3.28;95.48
12803;BME280;6465;42.700;23.278;2023-12-20T11:45:33;94595.28;;;3.32;94.79
12803;BME280;6465;42.700;23.278;2023-12-20T11:48:01;94596.72;;;3.42;93.64
12803;BME280;6465;42.700;23.278;2023-12-20T11:50:29;94592.69;;;3.32;93.85
12803;BME280;6465;42.700;23.278;2023-12-20T11:52:56;94573.63;;;3.36;94.44
12803;BME280;6465;42.700;23.278;2023-12-20T11:55:23;94575.25;;;3.39;94.32
12803;BME280;6465;42.700;23.278;2023-12-20T11:57:51;94573.41;;;3.42;94.44
12803;BME280;6465;42.700;23.278;2023-12-20T12:00:18;94567.34;;;3.43;93.63
12803;BME280;6465;42.700;23.278;2023-12-20T12:02:57;94559.28;;;3.52;92.96
12803;BME280;6465;42.700;23.278;2023-12-20T12:05:24;94560.13;;;3.53;93.08
12803;BME280;6465;42.700;23.278;2023-12-20T12:07:51;94560.59;;;3.66;92.15
12803;BME280;6465;42.700;23.278;2023-12-20T12:10:19;94547.63;;;3.66;91.56
12803;BME280;6465;42.700;23.278;2023-12-20T12:12:46;94540.72;;;3.66;92.07
12803;BME280;6465;42.700;23.278;2023-12-20T12:15:14;94535.00;;;3.56;92.64
12803;BME280;6465;42.700;23.278;2023-12-20T12:17:41;94536.94;;;3.76;91.47
12803;BME280;6465;42.700;23.278;2023-12-20T12:20:10;94530.13;;;3.74;91.42
12803;BME280;6465;42.700;23.278;2023-12-20T12:22:38;94520.66;;;3.73;91.65
12803;BME280;6465;42.700;23.278;2023-12-20T12:25:12;94512.94;;;3.71;91.65
12803;BME280;6465;42.700;23.278;2023-12-20T12:27:42;94514.19;;;3.59;92.57
12803;BME280;6465;42.700;23.278;2023-12-20T12:30:10;94515.59;;;3.70;92.69
12803;BME280;6465;42.700;23.278;2023-12-20T12:32:38;94518.53;;;3.59;93.44
12803;BME280;6465;42.700;23.278;2023-12-20T12:35:06;94527.94;;;3.62;93.95
12803;BME280;6465;42.700;23.278;2023-12-20T12:37:38;94517.81;;;3.54;94.19
12803;BME280;6465;42.700;23.278;2023-12-20T12:40:06;94523.66;;;3.61;93.93
12803;BME280;6465;42.700;23.278;2023-12-20T12:42:33;94521.41;;;3.76;94.23
12803;BME280;6465;42.700;23.278;2023-12-20T12:45:00;94518.66;;;3.81;93.20
12803;BME280;6465;42.700;23.278;2023-12-20T12:47:27;94518.56;;;3.84;93.25
12803;BME280;6465;42.700;23.278;2023-12-20T12:49:54;94513.28;;;3.87;93.21
12803;BME280;6465;42.700;23.278;2023-12-20T12:52:21;94507.59;;;4.02;92.55
12803;BME280;6465;42.700;23.278;2023-12-20T12:54:49;94510.81;;;4.09;91.66
12803;BME280;6465;42.700;23.278;2023-12-20T12:57:16;94503.34;;;3.99;92.24
12803;BME280;6465;42.700;23.278;2023-12-20T12:59:43;94511.28;;;3.95;93.27
12803;BME280;6465;42.700;23.278;2023-12-20T13:02:11;94492.56;;;3.87;92.70
12803;BME280;6465;42.700;23.278;2023-12-20T13:04:38;94505.28;;;3.93;92.31
12803;BME280;6465;42.700;23.278;2023-12-20T13:07:06;94505.34;;;3.91;93.04